createdAt,value
2022-11-19T00:00:43.176Z,6.30
2022-11-19T00:05:47.176Z,6.19
2022-11-19T00:10:48.789Z,6.04
2022-11-19T00:15:50.345Z,5.97
2022-11-19T00:20:51.888Z,5.92
2022-11-19T00:25:53.435Z,5.91
2022-11-19T00:30:54.976Z,5.75
2022-11-19T00:35:58.378Z,5.59
2022-11-19T00:41:00.130Z,5.59
2022-11-19T00:46:01.725Z,5.79
2022-11-19T00:51:03.507Z,5.98
2022-11-19T00:56:11.239Z,6.12
2022-11-19T01:01:14.576Z,6.25
2022-11-19T01:06:19.598Z,6.38
2022-11-19T01:11:30.079Z,6.44
2022-11-19T01:16:34.994Z,6.54
2022-11-19T01:21:37.143Z,6.59
2022-11-19T01:26:42.878Z,6.65
2022-11-19T01:31:46.984Z,6.73
2022-11-19T01:36:48.524Z,6.78
2022-11-19T01:41:50.122Z,6.81
2022-11-19T01:46:51.668Z,6.86
2022-11-19T01:52:00.683Z,6.91
2022-11-19T01:57:09.479Z,6.94
2022-11-19T02:02:11.186Z,6.95
2022-11-19T02:07:13.992Z,6.97
2022-11-19T02:12:40.152Z,6.99
2022-11-19T02:18:18.303Z,6.96
2022-11-19T02:23:22.742Z,6.98
2022-11-19T02:28:48.227Z,7.01
2022-11-19T02:33:55.835Z,7.04
2022-11-19T02:39:25.045Z,7.04
2022-11-19T02:44:54.536Z,7.02
2022-11-19T02:50:03.140Z,6.94
2022-11-19T02:55:05.552Z,6.87
2022-11-19T03:00:26.901Z,6.84
2022-11-19T03:05:33.553Z,6.82
2022-11-19T03:11:10.285Z,6.84
2022-11-19T03:16:41.951Z,6.88
2022-11-19T03:22:08.108Z,6.92
2022-11-19T03:27:12.327Z,6.94
2022-11-19T03:32:19.517Z,6.97
2022-11-19T03:37:24.271Z,6.97
2022-11-19T03:42:27.478Z,7.00
2022-11-19T03:47:36.876Z,7.02
2022-11-19T03:52:38.924Z,7.10
2022-11-19T03:57:40.689Z,7.16
2022-11-19T04:02:42.380Z,7.15
2022-11-19T04:07:44.908Z,7.18
2022-11-19T04:12:52.943Z,7.15
2022-11-19T04:17:54.655Z,7.12
2022-11-19T04:22:56.193Z,7.08
2022-11-19T04:27:57.789Z,7.06
2022-11-19T04:32:59.351Z,6.92
2022-11-19T04:38:00.918Z,6.87
2022-11-19T04:43:02.460Z,6.83
2022-11-19T04:48:04.280Z,6.69
2022-11-19T04:53:05.818Z,6.62
2022-11-19T04:58:07.491Z,6.53
2022-11-19T05:03:09.042Z,6.43
2022-11-19T05:08:10.591Z,6.43
2022-11-19T05:13:17.423Z,6.43
2022-11-19T05:18:18.972Z,6.44
2022-11-19T05:23:21.120Z,6.48
2022-11-19T05:28:37.635Z,6.49
2022-11-19T05:33:40.302Z,6.54
2022-11-19T05:38:41.878Z,6.49
2022-11-19T05:43:43.414Z,6.45
2022-11-19T05:48:44.959Z,6.50
2022-11-19T05:53:46.537Z,6.58
2022-11-19T05:58:48.091Z,6.62
2022-11-19T06:03:49.631Z,6.68
2022-11-19T06:08:51.608Z,6.75
2022-11-19T06:13:56.952Z,6.82
2022-11-19T06:18:58.508Z,6.83
2022-11-19T06:24:03.031Z,6.86
2022-11-19T06:29:04.612Z,6.78
2022-11-19T06:34:06.326Z,6.62
2022-11-19T06:39:07.987Z,6.49
2022-11-19T06:44:09.536Z,6.48
2022-11-19T06:49:19.579Z,6.52
2022-11-19T06:54:21.785Z,6.53
2022-11-19T06:59:23.365Z,6.58
2022-11-19T07:04:24.908Z,6.63
2022-11-19T07:09:26.453Z,6.71
2022-11-19T07:14:28.005Z,6.78
2022-11-19T07:19:29.632Z,6.88
2022-11-19T07:24:31.216Z,7.03
2022-11-19T07:29:32.754Z,7.14
2022-11-19T07:34:34.428Z,7.25
2022-11-19T07:39:36.012Z,7.35
2022-11-19T07:44:37.570Z,7.49
2022-11-19T07:49:39.183Z,7.61
2022-11-19T07:54:40.761Z,7.70
2022-11-19T07:59:42.391Z,7.76
2022-11-19T08:04:44.000Z,7.81
2022-11-19T08:09:45.568Z,7.78
2022-11-19T08:14:47.123Z,7.84
2022-11-19T08:19:48.663Z,7.96
2022-11-19T08:24:50.272Z,7.97
2022-11-19T08:29:51.906Z,7.97
2022-11-19T08:34:53.500Z,8.08
2022-11-19T08:39:55.071Z,8.22
2022-11-19T08:44:56.629Z,8.35
2022-11-19T08:49:58.230Z,8.43
2022-11-19T08:55:02.173Z,8.47
2022-11-19T09:00:06.391Z,8.45
2022-11-19T09:05:13.280Z,8.39
2022-11-19T09:10:17.842Z,8.25
2022-11-19T09:15:21.076Z,8.26
2022-11-19T09:20:22.667Z,8.27
2022-11-19T09:25:24.315Z,8.33
2022-11-19T09:30:26.224Z,8.38
2022-11-19T09:35:39.440Z,8.40
2022-11-19T09:40:45.791Z,8.39
2022-11-19T09:45:53.327Z,8.34
2022-11-19T09:51:07.116Z,8.34
2022-11-19T09:56:13.107Z,8.25
2022-11-19T10:01:17.380Z,8.16
2022-11-19T10:06:25.661Z,8.09
2022-11-19T10:11:53.016Z,8.14
2022-11-19T10:17:13.499Z,8.18
2022-11-19T10:22:24.284Z,8.12
2022-11-19T10:27:35.458Z,8.03
2022-11-19T10:32:42.860Z,7.94
2022-11-19T10:38:05.328Z,7.94
2022-11-19T10:43:31.498Z,7.96
2022-11-19T10:48:37.821Z,7.93
2022-11-19T10:53:41.065Z,7.90
2022-11-19T10:58:56.604Z,7.82
2022-11-19T11:04:25.219Z,7.85
2022-11-19T11:09:40.030Z,7.82
2022-11-19T11:14:52.702Z,7.79
2022-11-19T11:20:04.928Z,7.67
2022-11-19T11:25:25.316Z,7.64
2022-11-19T11:30:27.136Z,7.69
2022-11-19T11:35:34.763Z,7.66
2022-11-19T11:40:36.991Z,7.69
2022-11-19T11:45:38.659Z,7.70
2022-11-19T11:50:45.626Z,7.68
2022-11-19T11:55:57.561Z,7.79
2022-11-19T12:01:15.899Z,7.86
2022-11-19T12:06:20.127Z,7.92
2022-11-19T12:11:54.506Z,7.93
2022-11-19T12:17:23.759Z,7.91
2022-11-19T12:22:33.070Z,7.97
2022-11-19T12:28:09.877Z,8.05
2022-11-19T12:33:20.268Z,8.15
2022-11-19T12:38:40.068Z,8.11
2022-11-19T12:44:01.703Z,8.27
2022-11-19T12:49:27.806Z,8.40
2022-11-19T12:54:47.698Z,8.35
2022-11-19T12:59:55.303Z,8.38
2022-11-19T13:05:17.296Z,8.38
2022-11-19T13:10:28.888Z,8.46
2022-11-19T13:15:36.756Z,8.53
2022-11-19T13:20:46.103Z,8.60
2022-11-19T13:26:20.030Z,8.57
2022-11-19T13:31:41.256Z,8.56
2022-11-19T13:37:07.898Z,8.58
2022-11-19T13:42:29.173Z,8.58
2022-11-19T13:47:57.928Z,8.59
2022-11-19T13:53:34.956Z,8.60
2022-11-19T13:58:47.138Z,8.70
2022-11-19T14:03:57.811Z,8.73
2022-11-19T14:09:08.679Z,8.74
2022-11-19T14:14:38.079Z,8.70
2022-11-19T14:20:12.423Z,8.68
2022-11-19T14:26:00.127Z,8.66
2022-11-19T14:31:05.052Z,8.64
2022-11-19T14:36:13.229Z,7.79
2022-11-19T14:41:20.995Z,6.99
2022-11-19T14:46:27.742Z,6.47
2022-11-19T14:51:40.459Z,6.01
2022-11-19T14:56:48.535Z,5.57
2022-11-19T15:01:57.394Z,5.36
2022-11-19T15:07:00.307Z,5.38
2022-11-19T15:12:01.971Z,5.24
2022-11-19T15:17:04.952Z,5.18
2022-11-19T15:22:20.802Z,5.04
2022-11-19T15:27:53.622Z,4.91
2022-11-19T15:33:32.869Z,4.74
2022-11-19T15:38:42.560Z,4.65
2022-11-19T15:43:51.860Z,4.63
2022-11-19T15:49:23.418Z,4.64
2022-11-19T15:54:30.015Z,4.62
2022-11-19T15:59:36.298Z,4.65
2022-11-19T16:04:39.031Z,4.61
2022-11-19T16:09:40.776Z,4.62
2022-11-19T16:15:12.265Z,4.65
2022-11-19T16:20:20.379Z,4.66
2022-11-19T16:25:31.736Z,4.65
2022-11-19T16:30:43.612Z,4.36
2022-11-19T16:35:51.225Z,4.31
2022-11-19T16:41:16.364Z,4.32
2022-11-19T16:46:39.376Z,4.30
2022-11-19T16:52:03.019Z,4.36
2022-11-19T16:57:19.462Z,4.37
2022-11-19T17:02:25.255Z,4.39
2022-11-19T17:07:27.983Z,4.55
2022-11-19T17:12:34.550Z,4.64
2022-11-19T17:17:45.803Z,4.65
2022-11-19T17:22:51.461Z,4.65
2022-11-19T17:27:55.889Z,4.68
2022-11-19T17:33:04.471Z,4.51
2022-11-19T17:38:27.636Z,4.34
2022-11-19T17:43:51.045Z,4.12
2022-11-19T17:48:57.383Z,4.08
2022-11-19T17:53:58.947Z,4.14
2022-11-19T17:59:15.372Z,4.05
2022-11-19T18:04:17.014Z,4.10
2022-11-19T18:09:21.629Z,4.14
2022-11-19T18:14:23.336Z,4.23
2022-11-19T18:19:27.153Z,4.23
2022-11-19T18:24:28.783Z,4.19
2022-11-19T18:29:31.970Z,4.21
2022-11-19T18:34:33.607Z,4.17
2022-11-19T18:39:35.143Z,4.21
2022-11-19T18:44:38.401Z,4.17
2022-11-19T18:49:40.490Z,4.13
2022-11-19T18:54:42.156Z,4.09
2022-11-19T18:59:43.714Z,3.97
2022-11-19T19:04:50.689Z,3.93
2022-11-19T19:09:52.692Z,3.87
2022-11-19T19:14:57.306Z,3.94
2022-11-19T19:19:58.827Z,3.98
2022-11-19T19:25:05.169Z,3.89
2022-11-19T19:30:09.822Z,3.89
2022-11-19T19:35:11.367Z,3.88
2022-11-19T19:40:13.469Z,3.86
2022-11-19T19:45:15.104Z,3.87
2022-11-19T19:50:16.703Z,3.91
2022-11-19T19:55:27.374Z,3.91
2022-11-19T20:00:28.963Z,3.89
2022-11-19T20:05:30.575Z,3.94
2022-11-19T20:10:33.528Z,3.93
2022-11-19T20:15:35.170Z,3.83
2022-11-19T20:20:36.718Z,3.85
2022-11-19T20:25:38.654Z,3.87
2022-11-19T20:30:45.527Z,3.82
2022-11-19T20:35:51.822Z,3.73
2022-11-19T20:41:01.602Z,3.68
2022-11-19T20:46:07.101Z,3.65
2022-11-19T20:51:08.979Z,3.70
2022-11-19T20:56:13.092Z,3.73
2022-11-19T21:01:14.703Z,3.78
2022-11-19T21:06:33.505Z,3.80
2022-11-19T21:11:35.114Z,3.88
2022-11-19T21:16:45.610Z,3.97
2022-11-19T21:21:47.214Z,4.02
2022-11-19T21:26:52.043Z,4.02
2022-11-19T21:31:53.663Z,3.92
2022-11-19T21:36:57.934Z,3.92
2022-11-19T21:42:03.763Z,3.87
2022-11-19T21:47:05.307Z,3.88
2022-11-19T21:52:07.211Z,3.87
2022-11-19T21:57:08.776Z,3.93
2022-11-19T22:02:13.760Z,4.15
2022-11-19T22:07:15.338Z,4.19
2022-11-19T22:12:16.943Z,4.18
2022-11-19T22:17:18.544Z,4.28
2022-11-19T22:22:20.070Z,4.22
2022-11-19T22:27:21.659Z,4.25
2022-11-19T22:32:23.205Z,4.25
2022-11-19T22:37:24.743Z,4.22
2022-11-19T22:42:39.576Z,4.14
2022-11-19T22:47:41.121Z,4.11
2022-11-19T22:52:42.653Z,4.09
2022-11-19T22:57:44.209Z,4.16
2022-11-19T23:02:45.726Z,4.23
2022-11-19T23:07:47.272Z,4.25
2022-11-19T23:13:07.392Z,4.25
2022-11-19T23:18:08.988Z,4.25
2022-11-19T23:23:10.528Z,4.20
2022-11-19T23:28:13.442Z,4.14
2022-11-19T23:33:14.988Z,4.16
2022-11-19T23:38:17.115Z,4.12
2022-11-19T23:43:18.650Z,4.04
2022-11-19T23:48:20.374Z,4.02
2022-11-19T23:53:22.192Z,4.09
2022-11-19T23:58:28.404Z,4.06
